Time,TemperatureF,DewpointF,PressureIn,WindDirection,WindDirectionDegrees,WindSpeedMPH,WindSpeedGustMPH,Humidity,HourlyPrecipIn,Conditions,Clouds,dailyrainin,SolarRadiationWatts/m^2,SoftwareType,DateUTC
2013-11-11 00:00:00,74.9,69.0,30.09,NW,315,1.0,5.0,82,0.00,,---,0.00,0.00,VWS V14.01,2013-11-11 05:00:00,
2013-11-11 00:13:00,75.3,70.0,30.10,WSW,257,1.0,3.0,83,0.00,,,0.00,0,weatherlink.com 1.10,2013-11-11 05:13:00,
2013-11-11 00:28:00,75.3,70.0,30.10,WNW,286,1.0,4.0,83,0.00,,,0.00,0,weatherlink.com 1.10,2013-11-11 05:28:00,
2013-11-11 00:30:00,75.2,69.7,30.10,NNW,338,1.0,4.0,83,0.00,,---,0.00,0.00,VWS V14.01,2013-11-11 05:30:00,
2013-11-11 00:43:00,75.1,69.0,30.09,West,269,2.0,3.0,82,0.00,,,0.00,0,weatherlink.com 1.10,2013-11-11 05:43:00,
2013-11-11 00:58:00,75.1,70.0,30.09,SE,140,1.0,3.0,83,0.00,,,0.00,0,weatherlink.com 1.10,2013-11-11 05:58:00,
2013-11-11 01:00:00,75.1,69.6,30.09,NW,315,1.0,3.0,83,0.00,,---,0.00,0.00,VWS V14.01,2013-11-11 06:00:00,
2013-11-11 01:13:00,74.1,70.0,30.09,SE,144,1.0,2.0,86,0.00,,,0.00,0,weatherlink.com 1.10,2013-11-11 06:13:00,
2013-11-11 01:28:00,72.6,69.0,30.09,West,281,2.0,5.0,88,0.00,,,0.00,0,weatherlink.com 1.10,2013-11-11 06:28:00,
2013-11-11 01:30:00,72.6,68.8,30.09,NW,315,1.0,5.0,88,0.00,,---,0.00,0.00,VWS V14.01,2013-11-11 06:30:00,
2013-11-11 01:43:00,71.9,69.0,30.09,West,275,4.0,4.0,90,0.00,,,0.00,0,weatherlink.com 1.10,2013-11-11 06:43:00,
2013-11-11 01:58:00,71.7,69.0,30.09,WSW,248,1.0,6.0,91,0.00,,,0.00,0,weatherlink.com 1.10,2013-11-11 06:58:00,
2013-11-11 02:00:00,71.7,68.9,30.09,NW,315,3.0,6.0,91,0.00,,---,0.00,0.00,VWS V14.01,2013-11-11 07:00:00,
2013-11-11 02:13:00,71.6,69.0,30.09,West,279,3.0,6.0,92,0.00,,,0.00,0,weatherlink.com 1.10,2013-11-11 07:13:00,
2013-11-11 02:28:00,71.5,69.0,30.09,WSW,255,3.0,7.0,93,0.00,,,0.00,0,weatherlink.com 1.10,2013-11-11 07:28:00,
2013-11-11 02:30:00,71.5,69.4,30.09,NW,315,3.0,7.0,93,0.00,,---,0.00,0.00,VWS V14.01,2013-11-11 07:30:00,
2013-11-11 02:43:00,71.6,70.0,30.08,WSW,239,4.0,7.0,93,0.00,,,0.00,0,weatherlink.com 1.10,2013-11-11 07:43:00,
2013-11-11 02:58:00,71.9,70.0,30.09,WNW,293,4.0,6.0,93,0.00,,,0.00,0,weatherlink.com 1.10,2013-11-11 07:58:00,
2013-11-11 03:00:00,71.8,69.7,30.09,NNW,338,3.0,7.0,93,0.00,,---,0.00,0.00,VWS V14.01,2013-11-11 08:00:00,
2013-11-11 03:13:00,71.8,70.0,30.09,West,279,5.0,7.0,94,0.00,,,0.00,0,weatherlink.com 1.10,2013-11-11 08:13:00,
2013-11-11 03:28:00,71.6,70.0,30.09,WNW,286,2.0,5.0,94,0.00,,,0.00,0,weatherlink.com 1.10,2013-11-11 08:28:00,
2013-11-11 03:30:00,71.6,69.8,30.09,NW,315,3.0,7.0,94,0.00,,---,0.00,0.00,VWS V14.01,2013-11-11 08:30:00,
2013-11-11 03:43:00,71.1,69.0,30.08,West,274,2.0,6.0,94,0.00,,,0.00,0,weatherlink.com 1.10,2013-11-11 08:43:00,
2013-11-11 03:58:00,70.9,69.0,30.08,West,273,0.0,5.0,94,0.00,,,0.00,0,weatherlink.com 1.10,2013-11-11 08:58:00,
2013-11-11 04:00:00,70.9,69.1,30.08,NW,315,3.0,6.0,94,0.00,,---,0.00,0.00,VWS V14.01,2013-11-11 09:00:00,
2013-11-11 04:13:00,71.0,70.0,30.08,West,279,2.0,6.0,95,0.00,,,0.00,0,weatherlink.com 1.10,2013-11-11 09:13:00,
2013-11-11 04:28:00,71.1,70.0,30.08,WNW,286,4.0,5.0,95,0.00,,,0.00,0,weatherlink.com 1.10,2013-11-11 09:28:00,
2013-11-11 04:30:00,71.1,69.6,30.08,NNW,338,2.0,7.0,95,0.00,,---,0.00,0.00,VWS V14.01,2013-11-11 09:30:00,
2013-11-11 04:43:00,71.2,70.0,30.08,WNW,290,3.0,5.0,95,0.00,,,0.00,0,weatherlink.com 1.10,2013-11-11 09:43:00,
2013-11-11 04:58:00,71.3,70.0,30.09,WNW,290,1.0,6.0,95,0.00,,,0.00,0,weatherlink.com 1.10,2013-11-11 09:58:00,
2013-11-11 05:00:00,71.3,69.8,30.08,NNW,338,3.0,6.0,95,0.00,,---,0.00,0.00,VWS V14.01,2013-11-11 10:00:00,
2013-11-11 05:13:00,71.5,70.0,30.09,WNW,284,2.0,6.0,95,0.00,,,0.00,0,weatherlink.com 1.10,2013-11-11 10:13:00,
2013-11-11 05:28:00,71.6,70.0,30.08,WNW,284,2.0,4.0,95,0.00,,,0.00,0,weatherlink.com 1.10,2013-11-11 10:28:00,
2013-11-11 05:30:00,71.6,70.1,30.08,NNW,338,2.0,6.0,95,0.00,,---,0.00,0.00,VWS V14.01,2013-11-11 10:30:00,
2013-11-11 05:43:00,71.7,70.0,30.08,WNW,284,1.0,3.0,95,0.00,,,0.00,0,weatherlink.com 1.10,2013-11-11 10:43:00,
2013-11-11 06:00:00,71.8,70.3,30.08,NNW,338,1.0,4.0,95,0.00,,---,0.00,0.00,VWS V14.01,2013-11-11 11:00:00,
2013-11-11 06:13:00,71.9,71.0,30.09,NE,36,1.0,2.0,95,0.00,,,0.00,0,weatherlink.com 1.10,2013-11-11 11:13:00,
2013-11-11 06:28:00,71.8,70.0,30.10,WSW,242,2.0,3.0,95,0.00,,,0.00,0,weatherlink.com 1.10,2013-11-11 11:28:00,
2013-11-11 06:30:00,71.9,70.4,30.10,East,90,1.0,3.0,95,0.00,,---,0.00,0.00,VWS V14.01,2013-11-11 11:30:00,
2013-11-11 06:43:00,71.7,70.0,30.10,WSW,242,2.0,4.0,95,0.00,,,0.00,5,weatherlink.com 1.10,2013-11-11 11:43:00,
2013-11-11 06:58:00,71.7,70.0,30.10,WSW,258,2.0,3.0,95,0.00,,,0.00,19,weatherlink.com 1.10,2013-11-11 11:58:00,
2013-11-11 07:00:00,71.7,70.2,30.10,WNW,292,1.0,3.0,95,0.00,,---,0.00,7.00,VWS V14.01,2013-11-11 12:00:00,
2013-11-11 07:14:00,71.7,70.0,30.10,WSW,256,1.0,3.0,95,0.00,,,0.00,32,weatherlink.com 1.10,2013-11-11 12:14:00,
2013-11-11 07:29:00,71.9,71.0,30.11,WSW,256,1.0,3.0,95,0.00,,,0.00,56,weatherlink.com 1.10,2013-11-11 12:29:00,
2013-11-11 07:30:00,71.9,70.4,30.11,WNW,292,2.0,4.0,95,0.00,,---,0.00,36.00,VWS V14.01,2013-11-11 12:30:00,
2013-11-11 07:44:00,72.2,71.0,30.11,WSW,256,2.0,3.0,95,0.00,,,0.00,44,weatherlink.com 1.10,2013-11-11 12:44:00,
2013-11-11 07:59:00,72.4,71.0,30.12,West,280,2.0,7.0,95,0.00,,,0.00,39,weatherlink.com 1.10,2013-11-11 12:59:00,
2013-11-11 08:00:00,72.4,70.9,30.12,WNW,292,2.0,7.0,95,0.00,,---,0.00,50.00,VWS V14.01,2013-11-11 13:00:00,
2013-11-11 08:14:00,73.7,72.0,30.12,SSW,205,3.0,7.0,94,0.00,,,0.00,91,weatherlink.com 1.10,2013-11-11 13:14:00,
2013-11-11 08:29:00,75.3,73.0,30.13,SSW,201,3.0,5.0,91,0.00,,,0.00,153,weatherlink.com 1.10,2013-11-11 13:29:00,
2013-11-11 08:30:00,75.2,72.4,30.13,West,270,2.0,7.0,91,0.00,,---,0.00,85.00,VWS V14.01,2013-11-11 13:30:00,
2013-11-11 08:44:00,76.2,73.0,30.13,West,266,5.0,6.0,88,0.00,,,0.00,167,weatherlink.com 1.10,2013-11-11 13:44:00,
2013-11-11 08:59:00,76.1,72.0,30.14,WSW,251,2.0,6.0,87,0.01,,,0.01,102,weatherlink.com 1.10,2013-11-11 13:59:00,
2013-11-11 09:00:00,76.2,72.1,30.14,West,270,3.0,7.0,87,0.01,,---,0.01,136.00,VWS V14.01,2013-11-11 14:00:00,
2013-11-11 09:14:00,76.4,72.0,30.14,SSW,202,2.0,8.0,86,0.01,,,0.01,183,weatherlink.com 1.10,2013-11-11 14:14:00,
2013-11-11 09:29:00,77.5,72.0,30.14,SW,234,5.0,8.0,83,0.01,,,0.01,374,weatherlink.com 1.10,2013-11-11 14:29:00,
2013-11-11 09:30:00,77.5,71.9,30.14,West,270,4.0,9.0,83,0.01,,---,0.01,234.00,VWS V14.01,2013-11-11 14:30:00,
2013-11-11 09:44:00,77.3,72.0,30.14,West,270,3.0,7.0,83,0.01,,,0.01,524,weatherlink.com 1.10,2013-11-11 14:44:00,
2013-11-11 09:59:00,78.6,72.0,30.15,South,184,4.0,8.0,80,0.00,,,0.01,529,weatherlink.com 1.10,2013-11-11 14:59:00,
2013-11-11 10:00:00,78.6,72.3,30.15,West,270,4.0,9.0,81,0.01,,---,0.01,399.00,VWS V14.01,2013-11-11 15:00:00,
2013-11-11 10:14:00,79.6,72.0,30.15,WSW,251,3.0,7.0,77,0.00,,,0.01,302,weatherlink.com 1.10,2013-11-11 15:14:00,
2013-11-11 10:29:00,79.4,72.0,30.15,SW,226,3.0,7.0,77,0.00,,,0.01,636,weatherlink.com 1.10,2013-11-11 15:29:00,
2013-11-11 10:30:00,79.3,71.5,30.15,West,270,3.0,8.0,77,0.00,,---,0.01,473.00,VWS V14.01,2013-11-11 15:30:00,
2013-11-11 10:44:00,80.9,72.0,30.15,SSE,165,4.0,6.0,74,0.00,,,0.01,659,weatherlink.com 1.10,2013-11-11 15:44:00,
2013-11-11 10:59:00,81.5,72.0,30.14,SSW,195,2.0,6.0,72,0.00,,,0.01,694,weatherlink.com 1.10,2013-11-11 15:59:00,
2013-11-11 11:00:00,81.4,71.9,30.14,West,270,3.0,7.0,73,0.00,,---,0.01,657.00,VWS V14.01,2013-11-11 16:00:00,
2013-11-11 11:14:00,81.3,72.0,30.14,WSW,238,3.0,7.0,74,0.00,,,0.01,717,weatherlink.com 1.10,2013-11-11 16:14:00,
2013-11-11 11:29:00,81.4,72.0,30.13,SW,228,4.0,8.0,72,0.00,,,0.01,673,weatherlink.com 1.10,2013-11-11 16:29:00,
2013-11-11 11:30:00,81.3,71.8,30.13,WNW,292,3.0,8.0,73,0.00,,---,0.01,660.00,VWS V14.01,2013-11-11 16:30:00,
2013-11-11 11:44:00,81.4,72.0,30.13,SW,218,5.0,7.0,73,0.00,,,0.01,680,weatherlink.com 1.10,2013-11-11 16:44:00,
2013-11-11 11:59:00,81.1,72.0,30.12,WSW,249,4.0,7.0,74,0.00,,,0.01,577,weatherlink.com 1.10,2013-11-11 16:59:00,
2013-11-11 12:00:00,81.1,71.6,30.12,WNW,292,4.0,7.0,73,0.00,,---,0.01,613.00,VWS V14.01,2013-11-11 17:00:00,
2013-11-11 12:14:00,81.5,72.0,30.11,SW,216,2.0,6.0,73,0.00,,,0.01,552,weatherlink.com 1.10,2013-11-11 17:14:00,
2013-11-11 12:29:00,81.1,72.0,30.10,West,263,5.0,7.0,73,0.00,,,0.01,432,weatherlink.com 1.10,2013-11-11 17:29:00,
2013-11-11 12:30:00,81.1,71.6,30.11,WNW,292,3.0,7.0,73,0.00,,---,0.01,531.00,VWS V14.01,2013-11-11 17:30:00,
2013-11-11 12:44:00,80.6,72.0,30.09,WNW,296,4.0,7.0,74,0.00,,,0.01,512,weatherlink.com 1.10,2013-11-11 17:44:00,
2013-11-11 13:00:00,80.6,71.9,30.09,WNW,292,3.0,7.0,75,0.00,,---,0.01,487.00,VWS V14.01,2013-11-11 18:00:00,
2013-11-11 13:14:00,80.2,72.0,30.09,WSW,252,1.0,6.0,75,0.00,,,0.01,577,weatherlink.com 1.10,2013-11-11 18:14:00,
2013-11-11 13:29:00,80.1,72.0,30.08,SW,222,3.0,6.0,75,0.00,,,0.01,554,weatherlink.com 1.10,2013-11-11 18:29:00,
2013-11-11 13:30:00,80.0,71.4,30.08,NW,315,3.0,6.0,75,0.00,,---,0.01,525.00,VWS V14.01,2013-11-11 18:30:00,
2013-11-11 13:44:00,80.4,71.0,30.08,West,262,2.0,6.0,74,0.00,,,0.01,531,weatherlink.com 1.10,2013-11-11 18:44:00,
2013-11-11 13:59:00,80.3,71.0,30.08,WNW,303,2.0,5.0,74,0.00,,,0.01,552,weatherlink.com 1.10,2013-11-11 18:59:00,
2013-11-11 14:00:00,80.4,71.4,30.08,NW,315,2.0,7.0,74,0.00,,---,0.01,527.00,VWS V14.01,2013-11-11 19:00:00,
2013-11-11 14:14:00,81.0,72.0,30.08,WSW,252,4.0,6.0,74,0.00,,,0.01,555,weatherlink.com 1.10,2013-11-11 19:14:00,
2013-11-11 14:29:00,81.5,73.0,30.07,WSW,241,3.0,7.0,74,0.00,,,0.01,568,weatherlink.com 1.10,2013-11-11 19:29:00,
2013-11-11 14:30:00,81.5,72.4,30.08,WNW,292,3.0,7.0,74,0.00,,---,0.01,555.00,VWS V14.01,2013-11-11 19:30:00,
2013-11-11 14:44:00,81.6,71.0,30.08,SSW,200,0.0,6.0,71,0.00,,,0.01,462,weatherlink.com 1.10,2013-11-11 19:44:00,
2013-11-11 14:59:00,81.1,72.0,30.07,SW,227,2.0,5.0,74,0.00,,,0.01,315,weatherlink.com 1.10,2013-11-11 19:59:00,
2013-11-11 15:00:00,81.1,72.0,30.07,WNW,292,2.0,6.0,74,0.00,,---,0.01,462.00,VWS V14.01,2013-11-11 20:00:00,
2013-11-11 15:14:00,80.7,72.0,30.07,West,260,2.0,5.0,74,0.00,,,0.01,380,weatherlink.com 1.10,2013-11-11 20:14:00,
2013-11-11 15:29:00,80.4,72.0,30.07,WSW,246,3.0,6.0,75,0.00,,,0.01,225,weatherlink.com 1.10,2013-11-11 20:29:00,
2013-11-11 15:30:00,80.5,71.8,30.07,WNW,292,2.0,6.0,75,0.00,,---,0.01,307.00,VWS V14.01,2013-11-11 20:30:00,
2013-11-11 15:44:00,81.0,72.0,30.08,SW,229,3.0,5.0,73,0.00,,,0.01,348,weatherlink.com 1.10,2013-11-11 20:44:00,
2013-11-11 15:59:00,80.3,72.0,30.07,NW,319,2.0,5.0,76,0.00,,,0.01,348,weatherlink.com 1.10,2013-11-11 20:59:00,
2013-11-11 16:00:00,80.2,71.9,30.07,WNW,292,2.0,5.0,76,0.00,,---,0.01,337.00,VWS V14.01,2013-11-11 21:00:00,
2013-11-11 16:14:00,79.5,71.0,30.07,NW,307,2.0,4.0,76,0.00,,,0.01,118,weatherlink.com 1.10,2013-11-11 21:14:00,
2013-11-11 16:29:00,78.9,72.0,30.07,WSW,246,2.0,4.0,78,0.00,,,0.01,93,weatherlink.com 1.10,2013-11-11 21:29:00,
2013-11-11 16:30:00,79.0,71.6,30.07,NW,315,2.0,5.0,78,0.00,,---,0.01,164.00,VWS V14.01,2013-11-11 21:30:00,
2013-11-11 16:44:00,78.5,71.0,30.07,West,274,2.0,3.0,78,0.00,,,0.01,74,weatherlink.com 1.10,2013-11-11 21:44:00,
2013-11-11 16:59:00,78.3,71.0,30.07,NNW,327,2.0,3.0,79,0.00,,,0.01,63,weatherlink.com 1.10,2013-11-11 21:59:00,
2013-11-11 17:00:00,78.4,71.3,30.08,NW,315,1.0,4.0,79,0.00,,---,0.01,73.00,VWS V14.01,2013-11-11 22:00:00,
2013-11-11 17:14:00,78.0,71.0,30.07,WSW,256,4.0,5.0,79,0.00,,,0.01,23,weatherlink.com 1.10,2013-11-11 22:14:00,
2013-11-11 17:29:00,77.7,71.0,30.07,West,259,2.0,5.0,80,0.00,,,0.01,5,weatherlink.com 1.10,2013-11-11 22:29:00,
2013-11-11 17:30:00,77.8,71.1,30.07,NW,315,2.0,5.0,80,0.00,,---,0.01,31.00,VWS V14.01,2013-11-11 22:30:00,
2013-11-11 17:44:00,77.5,71.0,30.07,SSW,194,1.0,5.0,80,0.00,,,0.01,0,weatherlink.com 1.10,2013-11-11 22:44:00,
2013-11-11 17:59:00,77.2,71.0,30.07,SE,138,1.0,4.0,80,0.00,,,0.01,0,weatherlink.com 1.10,2013-11-11 22:59:00,
2013-11-11 18:00:00,77.2,70.6,30.07,WNW,292,2.0,6.0,80,0.00,,---,0.01,1.00,VWS V14.01,2013-11-11 23:00:00,
2013-11-11 18:15:00,77.1,71.0,30.07,SW,227,1.0,4.0,81,0.00,,,0.01,0,weatherlink.com 1.10,2013-11-11 23:15:00,
2013-11-11 18:30:00,76.9,70.0,30.07,NW,319,2.0,4.0,80,0.00,,,0.01,0,weatherlink.com 1.10,2013-11-11 23:30:00,
2013-11-11 18:45:00,76.8,71.0,30.07,WSW,256,2.0,4.0,81,0.00,,,0.01,0,weatherlink.com 1.10,2013-11-11 23:45:00,
2013-11-11 19:00:00,76.6,70.0,30.08,SW,234,0.0,4.0,81,0.00,,,0.01,0,weatherlink.com 1.10,2013-11-12 00:00:00,
2013-11-11 19:15:00,76.8,71.0,30.08,SW,218,1.0,3.0,81,0.00,,,0.01,0,weatherlink.com 1.10,2013-11-12 00:15:00,
2013-11-11 19:30:00,76.9,71.0,30.08,ESE,113,2.0,5.0,81,0.00,,,0.01,0,weatherlink.com 1.10,2013-11-12 00:30:00,
2013-11-11 19:45:00,76.7,71.0,30.08,ESE,123,5.0,7.0,81,0.00,,,0.01,0,weatherlink.com 1.10,2013-11-12 00:45:00,
2013-11-11 20:00:00,76.9,71.0,30.07,WSW,257,1.0,4.0,82,0.00,,,0.01,0,weatherlink.com 1.10,2013-11-12 01:00:00,
2013-11-11 20:15:00,76.7,71.0,30.08,ESE,119,1.0,4.0,81,0.00,,,0.01,0,weatherlink.com 1.10,2013-11-12 01:15:00,
2013-11-11 20:30:00,76.6,70.0,30.08,WNW,286,2.0,5.0,81,0.00,,,0.01,0,weatherlink.com 1.10,2013-11-12 01:30:00,
2013-11-11 20:45:00,76.5,71.0,30.08,East,82,0.0,4.0,82,0.00,,,0.01,0,weatherlink.com 1.10,2013-11-12 01:45:00,
2013-11-11 21:00:00,76.6,71.0,30.08,SW,214,2.0,5.0,82,0.00,,,0.01,0,weatherlink.com 1.10,2013-11-12 02:00:00,
2013-11-11 21:15:00,76.6,71.0,30.09,SE,127,0.0,4.0,83,0.00,,,0.01,0,weatherlink.com 1.10,2013-11-12 02:15:00,
2013-11-11 21:30:00,76.5,71.0,30.09,West,269,2.0,4.0,83,0.00,,,0.01,0,weatherlink.com 1.10,2013-11-12 02:30:00,
2013-11-11 21:45:00,76.4,71.0,30.09,NW,306,1.0,4.0,83,0.00,,,0.01,0,weatherlink.com 1.10,2013-11-12 02:45:00,
2013-11-11 22:00:00,76.4,71.0,30.10,SW,233,3.0,4.0,83,0.00,,,0.01,0,weatherlink.com 1.10,2013-11-12 03:00:00,
2013-11-11 22:15:00,76.4,71.0,30.10,SW,215,0.0,3.0,82,0.00,,,0.01,0,weatherlink.com 1.10,2013-11-12 03:15:00,
2013-11-11 22:30:00,76.4,71.0,30.09,NW,306,0.0,3.0,83,0.00,,,0.01,0,weatherlink.com 1.10,2013-11-12 03:30:00,
2013-11-11 22:45:00,76.3,71.0,30.09,ESE,121,2.0,4.0,83,0.00,,,0.01,0,weatherlink.com 1.10,2013-11-12 03:45:00,
2013-11-11 23:00:00,76.5,71.0,30.09,ESE,115,1.0,8.0,83,0.00,,,0.01,0,weatherlink.com 1.10,2013-11-12 04:00:00,
2013-11-11 23:15:00,76.3,71.0,30.08,ESE,115,2.0,7.0,83,0.00,,,0.01,0,weatherlink.com 1.10,2013-11-12 04:15:00,
2013-11-11 23:30:00,76.3,71.0,30.09,ESE,104,3.0,6.0,83,0.00,,,0.01,0,weatherlink.com 1.10,2013-11-12 04:30:00,
2013-11-11 23:45:00,76.4,71.0,30.08,ESE,117,2.0,7.0,82,0.00,,,0.01,0,weatherlink.com 1.10,2013-11-12 04:45:00,